createdAt,value
2019-02-25T00:00:19.855Z,72.37
2019-02-25T00:02:48.735Z,71.96
2019-02-25T00:05:17.463Z,72.07
2019-02-25T00:07:46.490Z,71.72
2019-02-25T00:10:15.237Z,69.94
2019-02-25T00:12:43.967Z,69.94
2019-02-25T00:15:12.845Z,70.42
2019-02-25T00:17:41.763Z,71.81
2019-02-25T00:20:11.801Z,71.38
2019-02-25T00:22:40.673Z,71.78
2019-02-25T00:25:13.422Z,72.46
2019-02-25T00:27:42.151Z,72.95
2019-02-25T00:30:13.003Z,74.00
2019-02-25T00:32:41.727Z,74.73
2019-02-25T00:35:10.456Z,75.66
2019-02-25T00:37:39.213Z,75.41
2019-02-25T00:40:09.932Z,75.30
2019-02-25T00:42:38.665Z,74.89
2019-02-25T00:45:13.062Z,75.20
2019-02-25T00:47:41.809Z,74.45
2019-02-25T00:50:21.005Z,74.13
2019-02-25T00:52:49.839Z,74.66
2019-02-25T00:55:18.758Z,73.75
2019-02-25T00:57:47.554Z,73.54
2019-02-25T01:00:18.611Z,74.50
2019-02-25T01:02:47.346Z,75.18
2019-02-25T01:05:16.786Z,75.56
2019-02-25T01:07:45.503Z,75.62
2019-02-25T01:10:15.134Z,75.49
2019-02-25T01:12:45.844Z,76.04
2019-02-25T01:15:15.276Z,76.00
2019-02-25T01:17:43.999Z,76.50
2019-02-25T01:20:15.298Z,75.38
2019-02-25T01:22:44.118Z,74.76
2019-02-25T01:25:17.599Z,75.52
2019-02-25T01:27:46.559Z,76.24
2019-02-25T01:30:19.700Z,76.94
2019-02-25T01:32:48.434Z,77.00
2019-02-25T01:35:17.607Z,75.79
2019-02-25T01:37:46.331Z,75.34
2019-02-25T01:40:15.453Z,75.59
2019-02-25T01:42:44.329Z,76.04
2019-02-25T01:45:15.728Z,76.25
2019-02-25T01:47:44.450Z,76.40
2019-02-25T01:50:13.232Z,76.24
2019-02-25T01:52:41.957Z,75.83
2019-02-25T01:55:12.388Z,76.16
2019-02-25T01:57:41.293Z,75.40
2019-02-25T02:00:15.479Z,75.68
2019-02-25T02:02:44.203Z,75.76
2019-02-25T02:05:13.113Z,75.19
2019-02-25T02:07:41.828Z,74.29
2019-02-25T02:10:17.516Z,74.37
2019-02-25T02:12:46.350Z,74.37
2019-02-25T02:15:16.775Z,74.81
2019-02-25T02:17:45.670Z,74.56
2019-02-25T02:20:16.299Z,74.51
2019-02-25T02:22:45.030Z,74.19
2019-02-25T02:25:14.386Z,74.52
2019-02-25T02:27:43.117Z,73.67
2019-02-25T02:30:22.184Z,73.67
2019-02-25T02:32:50.908Z,73.37
2019-02-25T02:35:19.627Z,72.57
2019-02-25T02:37:48.516Z,72.39
2019-02-25T02:40:17.248Z,72.39
2019-02-25T02:43:00.156Z,71.13
2019-02-25T02:45:34.613Z,70.95
2019-02-25T02:48:09.579Z,69.69
2019-02-25T02:50:38.368Z,69.44
2019-02-25T02:53:07.114Z,69.66
2019-02-25T02:55:36.273Z,68.25
2019-02-25T02:58:05.096Z,69.54
2019-02-25T03:00:33.923Z,68.85
2019-02-25T03:03:02.813Z,68.85
2019-02-25T03:05:31.573Z,68.19
2019-02-25T03:08:00.376Z,70.99
2019-02-25T03:10:29.268Z,72.46
2019-02-25T03:12:58.000Z,72.19
2019-02-25T03:15:26.752Z,72.66
2019-02-25T03:17:55.502Z,72.28
2019-02-25T03:20:24.231Z,72.68
2019-02-25T03:22:52.957Z,74.12
2019-02-25T03:25:21.829Z,75.26
2019-02-25T03:27:50.553Z,75.81
2019-02-25T03:30:20.920Z,75.81
2019-02-25T03:32:50.668Z,76.06
2019-02-25T03:35:19.548Z,76.93
2019-02-25T03:37:48.303Z,77.17
2019-02-25T03:40:19.518Z,75.85
2019-02-25T03:42:48.221Z,75.85
2019-02-25T03:45:18.548Z,76.35
2019-02-25T03:47:47.306Z,76.20
2019-02-25T03:50:16.039Z,76.45
2019-02-25T03:52:44.764Z,76.09
2019-02-25T03:55:22.807Z,76.09
2019-02-25T03:57:51.658Z,75.92
2019-02-25T04:00:22.825Z,75.55
2019-02-25T04:02:53.808Z,75.55
2019-02-25T04:05:22.527Z,75.93
2019-02-25T04:07:51.254Z,75.56
2019-02-25T04:10:20.285Z,75.56
2019-02-25T04:12:49.009Z,75.91
2019-02-25T04:15:26.406Z,75.40
2019-02-25T04:17:55.128Z,76.13
2019-02-25T04:20:23.852Z,75.61
2019-02-25T04:22:52.621Z,75.61
2019-02-25T04:25:21.345Z,76.01
2019-02-25T04:27:50.090Z,76.47
2019-02-25T04:30:19.327Z,76.47
2019-02-25T04:32:48.050Z,76.51
2019-02-25T04:35:16.799Z,76.51
2019-02-25T04:37:45.691Z,77.21
2019-02-25T04:40:15.075Z,77.69
2019-02-25T04:42:43.997Z,77.69
2019-02-25T04:45:18.220Z,77.23
2019-02-25T04:47:46.951Z,76.76
2019-02-25T04:50:15.679Z,77.58
2019-02-25T04:52:50.467Z,76.43
2019-02-25T04:55:19.196Z,76.99
2019-02-25T04:57:47.920Z,76.99
2019-02-25T05:00:19.288Z,77.15
2019-02-25T05:02:48.022Z,76.46
2019-02-25T05:05:16.748Z,76.46
2019-02-25T05:07:45.554Z,75.81
2019-02-25T05:10:17.926Z,75.81
2019-02-25T05:12:51.036Z,76.03
2019-02-25T05:15:21.348Z,76.42
2019-02-25T05:17:50.073Z,76.42
2019-02-25T05:20:19.266Z,77.57
2019-02-25T05:22:47.992Z,77.57
2019-02-25T05:25:16.722Z,76.77
2019-02-25T05:27:45.719Z,77.93
2019-02-25T05:30:15.527Z,77.93
2019-02-25T05:32:44.266Z,77.42
2019-02-25T05:35:14.597Z,78.09
2019-02-25T05:37:43.324Z,78.58
2019-02-25T05:40:14.975Z,78.58
2019-02-25T05:42:43.973Z,78.86
2019-02-25T05:45:14.111Z,79.22
2019-02-25T05:47:42.837Z,79.45
2019-02-25T05:50:16.735Z,79.78
2019-02-25T05:52:45.457Z,79.78
2019-02-25T05:55:16.371Z,78.81
2019-02-25T05:57:45.378Z,78.81
2019-02-25T06:00:18.592Z,79.95
2019-02-25T06:02:47.332Z,80.41
2019-02-25T06:05:16.555Z,80.41
2019-02-25T06:07:45.287Z,80.33
2019-02-25T06:10:14.816Z,80.69
2019-02-25T06:12:50.947Z,80.63
2019-02-25T06:15:20.619Z,81.32
2019-02-25T06:17:49.353Z,81.32
2019-02-25T06:20:18.849Z,80.09
2019-02-25T06:22:47.585Z,80.34
2019-02-25T06:25:17.331Z,79.78
2019-02-25T06:27:46.500Z,81.10
2019-02-25T06:30:17.731Z,79.83
2019-02-25T06:32:46.465Z,80.09
2019-02-25T06:35:15.324Z,78.78
2019-02-25T06:37:44.054Z,78.78
2019-02-25T06:40:20.292Z,79.59
2019-02-25T06:42:49.264Z,79.14
2019-02-25T06:45:23.435Z,79.14
2019-02-25T06:47:52.546Z,78.64
2019-02-25T06:50:21.326Z,78.16
2019-02-25T06:52:50.072Z,76.15
2019-02-25T06:55:18.798Z,74.70
2019-02-25T06:57:47.576Z,75.51
2019-02-25T07:00:18.743Z,74.38
2019-02-25T07:02:47.603Z,73.96
2019-02-25T07:05:21.156Z,73.19
2019-02-25T07:07:51.469Z,71.68
2019-02-25T07:10:24.456Z,73.03
2019-02-25T07:12:54.910Z,72.78
2019-02-25T07:15:31.209Z,72.46
2019-02-25T07:18:07.362Z,73.20
2019-02-25T07:20:46.420Z,72.82
2019-02-25T07:23:17.937Z,73.14
2019-02-25T07:25:54.089Z,71.49
2019-02-25T07:28:24.425Z,70.71
2019-02-25T07:30:54.727Z,71.58
2019-02-25T07:33:40.318Z,70.67
2019-02-25T07:36:10.698Z,70.67
2019-02-25T07:38:44.030Z,71.03
2019-02-25T07:41:14.327Z,72.14
2019-02-25T07:43:50.960Z,70.43
2019-02-25T07:46:27.154Z,70.70
2019-02-25T07:49:03.666Z,71.36
2019-02-25T07:51:37.081Z,70.72
2019-02-25T07:54:10.305Z,71.26
2019-02-25T07:56:43.349Z,70.86
2019-02-25T07:59:16.790Z,70.33
2019-02-25T08:01:47.104Z,69.37
2019-02-25T08:04:20.278Z,70.93
2019-02-25T08:06:59.614Z,69.99
2019-02-25T08:09:32.835Z,69.38
2019-02-25T08:12:07.254Z,67.87
2019-02-25T08:14:49.812Z,67.20
2019-02-25T08:17:26.380Z,66.09
2019-02-25T08:19:56.684Z,64.87
2019-02-25T08:22:36.194Z,64.70
2019-02-25T08:25:20.069Z,64.70
2019-02-25T08:27:50.461Z,63.54
2019-02-25T13:39:55.602Z,47.83
2019-02-25T13:42:24.329Z,46.96
2019-02-25T13:44:53.043Z,47.77
2019-02-25T13:47:21.800Z,49.27
2019-02-25T13:49:50.801Z,48.51
2019-02-25T13:52:19.521Z,48.40
2019-02-25T13:54:48.443Z,49.68
2019-02-25T13:57:17.174Z,50.32
2019-02-25T13:59:45.891Z,50.21
2019-02-25T14:02:14.748Z,52.05
2019-02-25T14:04:43.760Z,49.72
2019-02-25T14:07:12.645Z,49.13
2019-02-25T14:09:41.525Z,51.13
2019-02-25T14:12:10.248Z,52.06
2019-02-25T14:14:38.985Z,52.10
2019-02-25T14:17:07.869Z,52.52
2019-02-25T14:19:36.802Z,52.27
2019-02-25T14:22:05.539Z,53.20
2019-02-25T14:24:34.408Z,53.43
2019-02-25T14:27:03.125Z,54.23
2019-02-25T14:29:31.856Z,53.64
2019-02-25T14:32:00.706Z,54.46
2019-02-25T14:34:29.435Z,52.76
2019-02-25T14:36:59.725Z,52.49
2019-02-25T14:39:30.469Z,53.30
2019-02-25T14:42:01.253Z,53.63
2019-02-25T14:44:32.483Z,54.17
2019-02-25T14:47:02.636Z,55.32
2019-02-25T14:49:32.564Z,55.07
2019-02-25T14:52:01.066Z,55.35
2019-02-25T14:54:32.305Z,56.15
2019-02-25T14:57:01.079Z,54.13
2019-02-25T14:59:29.804Z,53.77
2019-02-25T15:01:59.314Z,54.95
2019-02-25T15:04:29.020Z,55.86
2019-02-25T15:06:57.742Z,56.12
2019-02-25T15:09:28.348Z,56.57
2019-02-25T15:11:57.730Z,55.17
2019-02-25T15:14:27.855Z,55.44
2019-02-25T15:16:56.814Z,56.11
2019-02-25T15:19:27.913Z,57.65
2019-02-25T15:21:56.872Z,56.67
2019-02-25T15:24:26.686Z,57.32
2019-02-25T15:26:57.389Z,57.20
2019-02-25T15:29:25.860Z,56.80
2019-02-25T15:31:55.190Z,58.20
2019-02-25T15:34:25.068Z,58.97
2019-02-25T15:36:53.799Z,58.99
2019-02-25T15:39:23.483Z,58.01
2019-02-25T15:41:55.059Z,57.56
2019-02-25T15:44:24.564Z,57.84
2019-02-25T15:46:53.463Z,57.01
2019-02-25T15:49:24.011Z,58.16
2019-02-25T15:51:52.774Z,57.99
2019-02-25T15:54:21.500Z,58.75
2019-02-25T15:56:50.251Z,58.20
2019-02-25T15:59:19.066Z,59.13
2019-02-25T16:01:48.153Z,58.88
2019-02-25T16:04:16.843Z,58.96
2019-02-25T16:06:45.664Z,59.46
2019-02-25T16:09:17.073Z,60.12
2019-02-25T16:11:47.388Z,59.71
2019-02-25T16:14:16.219Z,60.37
2019-02-25T16:16:45.004Z,60.91
2019-02-25T16:19:13.697Z,60.28
2019-02-25T16:21:42.558Z,61.23
2019-02-25T16:24:12.297Z,60.85
2019-02-25T16:26:42.778Z,60.57
2019-02-25T16:29:13.453Z,60.74
2019-02-25T16:31:42.415Z,60.35
2019-02-25T16:34:12.057Z,60.75
2019-02-25T16:36:41.676Z,61.15
2019-02-25T16:39:10.403Z,61.31
2019-02-25T16:41:41.758Z,61.90
2019-02-25T16:44:10.270Z,61.94
2019-02-25T16:46:41.202Z,62.09
2019-02-25T16:49:09.449Z,61.23
2019-02-25T16:51:38.526Z,61.42
2019-02-25T16:54:11.066Z,61.25
2019-02-25T16:56:37.850Z,62.27
2019-02-25T16:59:10.732Z,62.98
2019-02-25T17:01:39.300Z,63.61
2019-02-25T17:04:07.453Z,64.09
2019-02-25T17:06:36.928Z,64.58
2019-02-25T17:09:07.139Z,64.97
2019-02-25T17:11:37.930Z,66.13
2019-02-25T17:14:06.504Z,66.81
2019-02-25T17:16:35.228Z,67.22
2019-02-25T17:19:05.624Z,66.87
2019-02-25T17:21:34.507Z,67.58
2019-02-25T17:24:05.208Z,67.24
2019-02-25T17:26:33.688Z,67.13
2019-02-25T17:29:02.587Z,67.51
2019-02-25T17:31:32.275Z,67.40
2019-02-25T17:34:01.830Z,67.57
2019-02-25T17:36:31.019Z,67.44
2019-02-25T17:38:59.747Z,67.40
2019-02-25T17:41:28.501Z,67.62
2019-02-25T17:43:59.227Z,67.31
2019-02-25T17:46:28.775Z,68.75
2019-02-25T17:48:58.677Z,69.40
2019-02-25T17:51:27.577Z,69.90
2019-02-25T17:53:56.583Z,69.30
2019-02-25T17:56:26.987Z,69.79
2019-02-25T17:58:56.156Z,68.95
2019-02-25T18:01:26.292Z,69.17
2019-02-25T18:03:55.440Z,68.81
2019-02-25T18:06:29.560Z,69.11
2019-02-25T18:08:55.389Z,69.55
2019-02-25T18:11:25.365Z,69.28
2019-02-25T18:13:55.702Z,68.90
2019-02-25T18:16:24.635Z,69.24
2019-02-25T18:18:54.471Z,69.28
2019-02-25T18:21:28.152Z,69.51
2019-02-25T18:23:54.630Z,68.95
2019-02-25T18:26:28.578Z,69.58
2019-02-25T18:28:57.017Z,70.14
2019-02-25T18:31:26.030Z,71.09
2019-02-25T18:33:54.756Z,71.55
2019-02-25T18:36:26.305Z,73.08
2019-02-25T18:38:54.937Z,74.82
2019-02-25T18:41:25.415Z,75.70
2019-02-25T18:43:54.938Z,76.74
2019-02-25T18:46:25.111Z,77.33
2019-02-25T18:48:54.303Z,77.67
2019-02-25T18:51:24.632Z,77.11
2019-02-25T18:53:54.879Z,76.78
2019-02-25T18:56:24.264Z,76.21
2019-02-25T18:58:53.773Z,76.28
2019-02-25T19:01:23.605Z,76.42
2019-02-25T19:03:54.308Z,76.49
2019-02-25T19:06:24.019Z,76.51
2019-02-25T19:08:55.611Z,76.79
2019-02-25T19:11:25.930Z,77.08
2019-02-25T19:13:56.638Z,77.52
2019-02-25T19:16:25.364Z,77.65
2019-02-25T19:18:54.095Z,77.86
2019-02-25T19:21:24.989Z,77.94
2019-02-25T19:23:53.767Z,78.14
2019-02-25T19:26:22.509Z,77.67
2019-02-25T19:28:52.495Z,77.43
2019-02-25T19:31:23.913Z,76.90
2019-02-25T19:33:52.226Z,76.90
2019-02-25T19:36:21.126Z,76.36
2019-02-25T19:38:50.325Z,76.17
2019-02-25T19:41:20.686Z,76.26
2019-02-25T19:43:58.674Z,75.89
2019-02-25T19:46:20.023Z,75.70
2019-02-25T19:48:49.779Z,76.20
2019-02-25T19:51:20.716Z,76.69
2019-02-25T19:53:50.082Z,77.04
2019-02-25T19:56:18.828Z,77.03
2019-02-25T19:58:47.717Z,77.54
2019-02-25T20:01:16.472Z,77.37
2019-02-25T20:03:47.592Z,77.18
2019-02-25T20:06:18.566Z,77.17
2019-02-25T20:08:48.577Z,77.71
2019-02-25T20:11:17.126Z,77.57
2019-02-25T20:13:46.001Z,77.14
2019-02-25T20:16:18.001Z,76.72
2019-02-25T20:18:45.595Z,76.19
2019-02-25T20:21:14.495Z,75.97
2019-02-25T20:23:44.887Z,76.73
2019-02-25T20:26:15.304Z,76.73
2019-02-25T20:28:46.178Z,77.32
2019-02-25T20:31:16.639Z,77.42
2019-02-25T20:33:45.156Z,78.29
2019-02-25T20:36:17.158Z,78.13
2019-02-25T20:38:44.415Z,78.18
2019-02-25T20:41:16.038Z,77.58
2019-02-25T20:43:44.519Z,75.88
2019-02-25T20:46:14.101Z,74.04
2019-02-25T20:48:46.478Z,74.04
2019-02-25T20:51:13.518Z,72.62
2019-02-25T20:53:42.248Z,71.05
2019-02-25T20:56:11.010Z,71.02
2019-02-25T20:58:40.205Z,70.89
2019-02-25T21:01:12.076Z,71.59
2019-02-25T21:03:43.870Z,72.47
2019-02-25T21:06:12.686Z,72.84
2019-02-25T21:08:42.753Z,73.34
2019-02-25T21:11:13.359Z,74.84
2019-02-25T21:13:43.082Z,75.57
2019-02-25T21:16:11.825Z,75.73
2019-02-25T21:18:40.557Z,75.68
2019-02-25T21:21:11.731Z,76.52
2019-02-25T21:23:39.908Z,76.36
2019-02-25T21:26:09.314Z,76.61
2019-02-25T21:28:40.460Z,77.03
2019-02-25T21:31:13.801Z,77.56
2019-02-25T21:33:44.997Z,78.13
2019-02-25T21:36:11.057Z,78.08
2019-02-25T21:38:39.792Z,78.65
2019-02-25T21:41:09.127Z,79.51
2019-02-25T21:43:43.332Z,80.00
2019-02-25T21:46:10.096Z,80.07
2019-02-25T21:48:38.832Z,79.96
2019-02-25T21:51:09.613Z,80.36
2019-02-25T21:53:38.088Z,80.56
2019-02-25T21:56:06.829Z,81.02
2019-02-25T21:58:36.059Z,81.51
2019-02-25T22:01:04.793Z,81.91
2019-02-25T22:03:36.952Z,82.93
2019-02-25T22:06:04.895Z,82.81
2019-02-25T22:08:36.109Z,83.11
2019-02-25T22:11:12.593Z,83.01
2019-02-25T22:13:37.844Z,83.25
2019-02-25T22:16:08.015Z,83.16
2019-02-25T22:18:38.357Z,83.16
2019-02-25T22:21:09.235Z,83.58
2019-02-25T22:23:37.621Z,84.35
2019-02-25T22:26:06.359Z,85.12
2019-02-25T22:28:37.025Z,85.12
2019-02-25T22:31:07.925Z,84.74
2019-02-25T22:33:36.033Z,84.71
2019-02-25T22:36:05.516Z,85.50
2019-02-25T22:38:34.255Z,86.27
2019-02-25T22:41:02.974Z,85.79
2019-02-25T22:43:32.199Z,85.47
2019-02-25T22:46:02.486Z,85.05
2019-02-25T22:48:31.362Z,85.13
2019-02-25T22:51:02.632Z,85.02
2019-02-25T22:53:32.322Z,84.12
2019-02-25T22:56:01.047Z,83.39
2019-02-25T22:58:31.583Z,83.35
2019-02-25T23:01:14.737Z,83.51
2019-02-25T23:03:44.913Z,83.19
2019-02-25T23:06:13.952Z,82.82
2019-02-25T23:08:44.243Z,82.83
2019-02-25T23:11:14.367Z,83.10
2019-02-25T23:13:45.707Z,82.97
2019-02-25T23:16:15.631Z,83.02
2019-02-25T23:18:44.986Z,82.89
2019-02-25T23:21:23.174Z,82.91
2019-02-25T23:23:44.080Z,82.07
2019-02-25T23:26:14.702Z,82.02
2019-02-25T23:28:43.303Z,82.53
2019-02-25T23:31:16.329Z,82.65
2019-02-25T23:33:47.253Z,83.62
2019-02-25T23:36:17.577Z,83.92
2019-02-25T23:38:46.433Z,84.44
2019-02-25T23:41:16.676Z,85.14
2019-02-25T23:43:48.322Z,85.79
2019-02-25T23:46:15.891Z,85.87
2019-02-25T23:48:46.508Z,86.06
2019-02-25T23:51:17.253Z,85.91
2019-02-25T23:53:46.537Z,85.76
2019-02-25T23:56:18.944Z,85.81
2019-02-25T23:58:47.973Z,86.19
